Time;durP1;ratioP1;P1;durP2;ratioP2;P2;SDS_P1;SDS_P2;PMS_P1;PMS_P2;Temp;Humidity;BMP_temperature;BMP_pressure;BME280_temperature;BME280_humidity;BME280_pressure;Samples;Min_cycle;Max_cycle;Signal;HPM_P1;HPM_P2
2023/12/01 00:00:55;;;;;;;11.10;6.72;;;;;;;;;;5117558;28;20427;-73
2023/12/01 00:03:22;;;;;;;12.95;6.97;;;;;;;;;;5117796;28;20126;-73
2023/12/01 00:05:49;;;;;;;13.77;7.45;;;;;;;;;;5119166;28;20040;-73
2023/12/01 00:08:15;;;;;;;11.65;6.90;;;;;;;;;;5115750;28;20048;-73
2023/12/01 00:10:43;;;;;;;11.18;6.35;;;;;;;;;;5117940;28;20065;-73
2023/12/01 00:13:10;;;;;;;11.90;7.18;;;;;;;;;;5119779;27;20040;-73
2023/12/01 00:15:36;;;;;;;11.07;6.55;;;;;;;;;;5119512;28;20052;-73
2023/12/01 00:18:03;;;;;;;10.90;6.13;;;;;;;;;;5117910;28;20061;-73
2023/12/01 00:20:30;;;;;;;10.55;5.90;;;;;;;;;;5119891;28;20142;-73
2023/12/01 00:22:58;;;;;;;9.60;6.22;;;;;;;;;;5112826;28;20047;-73
2023/12/01 00:25:25;;;;;;;9.65;5.78;;;;;;;;;;5114799;28;20054;-73
2023/12/01 00:27:53;;;;;;;11.05;5.97;;;;;;;;;;5121793;28;20043;-73
2023/12/01 00:30:19;;;;;;;8.30;5.82;;;;;;;;;;5120546;28;20066;-72
2023/12/01 00:32:46;;;;;;;9.80;5.43;;;;;;;;;;5122473;28;20076;-73
2023/12/01 00:35:13;;;;;;;7.60;4.78;;;;;;;;;;5115007;28;20039;-72
2023/12/01 00:37:39;;;;;;;9.13;5.55;;;;;;;;;;5118802;28;20127;-73
2023/12/01 00:40:10;;;;;;;7.60;4.93;;;;;;;;;;5118290;28;20415;-73
2023/12/01 00:42:36;;;;;;;7.15;4.57;;;;;;;;;;5116037;28;20058;-73
2023/12/01 00:45:05;;;;;;;7.57;4.68;;;;;;;;;;5111531;28;20040;-72
2023/12/01 00:47:32;;;;;;;7.60;4.30;;;;;;;;;;5122014;28;20043;-72
2023/12/01 00:49:58;;;;;;;5.50;3.95;;;;;;;;;;5123040;28;20048;-73
2023/12/01 00:52:25;;;;;;;6.75;4.22;;;;;;;;;;5117742;28;20039;-73
2023/12/01 00:54:52;;;;;;;6.03;3.67;;;;;;;;;;5116207;28;20048;-71
2023/12/01 00:57:18;;;;;;;5.25;3.65;;;;;;;;;;5111813;28;20047;-72
2023/12/01 00:59:45;;;;;;;6.05;4.43;;;;;;;;;;5111155;28;20127;-71
2023/12/01 01:02:13;;;;;;;5.40;4.15;;;;;;;;;;5118397;27;20045;-71
2023/12/01 01:04:39;;;;;;;8.88;4.50;;;;;;;;;;5116047;27;20130;-71
2023/12/01 01:07:06;;;;;;;6.80;4.35;;;;;;;;;;5114655;28;20043;-71
2023/12/01 01:09:33;;;;;;;7.10;4.55;;;;;;;;;;5114549;28;20048;-71
2023/12/01 01:12:01;;;;;;;6.85;4.65;;;;;;;;;;5120084;27;20047;-71
2023/12/01 01:14:28;;;;;;;7.00;4.38;;;;;;;;;;5115638;27;20048;-71
2023/12/01 01:16:54;;;;;;;6.97;4.60;;;;;;;;;;5118730;27;20060;-71
2023/12/01 01:19:22;;;;;;;6.70;5.03;;;;;;;;;;5114412;28;20044;-71
2023/12/01 01:21:49;;;;;;;9.40;5.68;;;;;;;;;;5115004;27;20313;-71
2023/12/01 01:24:15;;;;;;;8.38;5.55;;;;;;;;;;5114568;28;20039;-71
2023/12/01 01:26:42;;;;;;;7.93;5.28;;;;;;;;;;5114678;28;20097;-71
2023/12/01 01:29:08;;;;;;;7.18;5.00;;;;;;;;;;5115014;28;20055;-71
2023/12/01 01:31:35;;;;;;;8.93;5.60;;;;;;;;;;5114823;27;20039;-71
2023/12/01 01:34:02;;;;;;;7.63;4.90;;;;;;;;;;5115241;27;20054;-71
2023/12/01 01:36:29;;;;;;;8.50;5.07;;;;;;;;;;5116990;27;20075;-72
2023/12/01 01:38:56;;;;;;;6.90;4.85;;;;;;;;;;5116908;27;20522;-71
2023/12/01 01:41:23;;;;;;;7.70;4.95;;;;;;;;;;5116038;27;20415;-71
2023/12/01 01:43:49;;;;;;;7.25;4.90;;;;;;;;;;5117363;27;20055;-71
2023/12/01 01:46:17;;;;;;;9.13;5.35;;;;;;;;;;5117244;27;20050;-72
2023/12/01 01:48:44;;;;;;;9.50;5.28;;;;;;;;;;5114599;27;20078;-71
2023/12/01 01:51:11;;;;;;;9.68;4.90;;;;;;;;;;5118378;27;20039;-70
2023/12/01 01:53:41;;;;;;;9.93;5.65;;;;;;;;;;5118080;27;20044;-71
2023/12/01 01:56:12;;;;;;;8.70;5.50;;;;;;;;;;5110551;27;20507;-71
2023/12/01 01:58:38;;;;;;;8.77;5.65;;;;;;;;;;5110633;28;20472;-71
2023/12/01 02:01:07;;;;;;;8.15;5.50;;;;;;;;;;5113727;28;20571;-72
2023/12/01 02:03:34;;;;;;;9.77;5.80;;;;;;;;;;5124821;27;20134;-71
2023/12/01 02:06:06;;;;;;;10.52;5.70;;;;;;;;;;5115870;27;20047;-71
2023/12/01 02:08:33;;;;;;;9.70;5.83;;;;;;;;;;5119526;27;20063;-71
2023/12/01 02:11:01;;;;;;;10.98;5.90;;;;;;;;;;5117853;27;20771;-71
2023/12/01 02:13:28;;;;;;;9.15;5.97;;;;;;;;;;5118875;27;20419;-71
2023/12/01 02:15:55;;;;;;;11.43;6.28;;;;;;;;;;5116961;27;20063;-71
2023/12/01 02:18:23;;;;;;;8.43;5.18;;;;;;;;;;5113192;28;20046;-71
2023/12/01 02:20:50;;;;;;;9.68;5.93;;;;;;;;;;5115279;27;20044;-71
2023/12/01 02:23:18;;;;;;;9.63;6.32;;;;;;;;;;5115909;27;20148;-71
2023/12/01 02:25:45;;;;;;;9.05;6.20;;;;;;;;;;5113276;28;20050;-72
2023/12/01 02:28:11;;;;;;;9.45;5.95;;;;;;;;;;5113304;28;20054;-71
2023/12/01 02:30:38;;;;;;;8.20;5.30;;;;;;;;;;5113236;28;20130;-71
2023/12/01 02:33:05;;;;;;;8.45;5.78;;;;;;;;;;5113561;28;20058;-71
2023/12/01 02:35:31;;;;;;;8.18;5.20;;;;;;;;;;5117601;27;20511;-71
2023/12/01 02:37:59;;;;;;;9.35;5.70;;;;;;;;;;5113735;27;20048;-71
2023/12/01 02:40:27;;;;;;;7.80;5.05;;;;;;;;;;5120097;27;20077;-71
2023/12/01 02:42:54;;;;;;;8.30;5.20;;;;;;;;;;5116243;27;20050;-71
2023/12/01 02:45:22;;;;;;;8.90;5.32;;;;;;;;;;5115077;27;20043;-71
2023/12/01 02:47:49;;;;;;;9.25;5.65;;;;;;;;;;5122360;27;20051;-71
2023/12/01 02:50:16;;;;;;;9.20;5.50;;;;;;;;;;5121417;27;20538;-71
2023/12/01 02:52:43;;;;;;;8.45;5.40;;;;;;;;;;5114075;27;20046;-71
2023/12/01 02:55:11;;;;;;;7.30;5.35;;;;;;;;;;5116570;27;20085;-71
2023/12/01 02:57:40;;;;;;;7.30;5.05;;;;;;;;;;5112440;28;20043;-71
2023/12/01 03:00:10;;;;;;;8.05;4.97;;;;;;;;;;5109005;27;20055;-71
2023/12/01 03:02:36;;;;;;;8.63;5.07;;;;;;;;;;5113641;27;20047;-71
2023/12/01 03:05:05;;;;;;;7.07;4.63;;;;;;;;;;5120438;27;20598;-71
2023/12/01 03:07:31;;;;;;;7.90;4.93;;;;;;;;;;5113275;28;20083;-71
2023/12/01 03:09:58;;;;;;;9.20;5.05;;;;;;;;;;5118111;27;20074;-71
2023/12/01 03:12:25;;;;;;;9.43;5.10;;;;;;;;;;5123098;27;20050;-71
2023/12/01 03:14:53;;;;;;;7.47;4.90;;;;;;;;;;5118195;27;20130;-71
2023/12/01 03:17:23;;;;;;;6.75;4.82;;;;;;;;;;5114299;27;20135;-71
2023/12/01 03:19:50;;;;;;;8.23;5.25;;;;;;;;;;5119994;27;20050;-71
2023/12/01 03:22:17;;;;;;;8.65;5.60;;;;;;;;;;5112611;28;20466;-71
2023/12/01 03:24:44;;;;;;;8.70;5.45;;;;;;;;;;5115055;27;20039;-71
2023/12/01 03:27:11;;;;;;;10.15;5.45;;;;;;;;;;5116939;27;20048;-71
2023/12/01 03:29:39;;;;;;;8.82;5.90;;;;;;;;;;5127582;27;20150;-71
2023/12/01 03:32:07;;;;;;;9.07;5.65;;;;;;;;;;5116394;27;20050;-71
2023/12/01 03:34:33;;;;;;;7.10;5.40;;;;;;;;;;5115605;27;20488;-71
2023/12/01 03:37:00;;;;;;;7.43;5.07;;;;;;;;;;5115321;27;20518;-71
2023/12/01 03:39:27;;;;;;;7.25;4.68;;;;;;;;;;5116216;27;20125;-71
2023/12/01 03:41:53;;;;;;;5.35;4.03;;;;;;;;;;5116190;27;20046;-71
2023/12/01 03:44:20;;;;;;;8.07;4.70;;;;;;;;;;5115241;27;20132;-71
2023/12/01 03:46:46;;;;;;;8.35;4.70;;;;;;;;;;5112770;27;20430;-71
2023/12/01 03:49:14;;;;;;;6.88;4.65;;;;;;;;;;5112569;28;20423;-71
2023/12/01 03:51:41;;;;;;;8.27;5.38;;;;;;;;;;5112352;28;20046;-71
2023/12/01 03:54:07;;;;;;;8.27;5.35;;;;;;;;;;5111708;28;20044;-71
2023/12/01 03:56:36;;;;;;;8.25;5.13;;;;;;;;;;5117170;28;20044;-71
2023/12/01 03:59:03;;;;;;;8.93;5.30;;;;;;;;;;5115888;28;20050;-71
2023/12/01 04:01:35;;;;;;;8.68;5.50;;;;;;;;;;5111722;28;20047;-71
2023/12/01 04:04:02;;;;;;;8.57;5.40;;;;;;;;;;5112588;28;20130;-71
2023/12/01 04:06:30;;;;;;;7.22;5.22;;;;;;;;;;5118355;28;20075;-71
2023/12/01 04:08:56;;;;;;;9.98;5.05;;;;;;;;;;5112305;28;20422;-71
2023/12/01 04:11:23;;;;;;;8.02;5.53;;;;;;;;;;5111808;28;20043;-71
2023/12/01 04:13:50;;;;;;;7.40;5.28;;;;;;;;;;5116180;28;20126;-71
2023/12/01 04:16:16;;;;;;;7.70;5.03;;;;;;;;;;5118656;28;20143;-73
2023/12/01 04:18:45;;;;;;;7.25;4.95;;;;;;;;;;5111215;28;20039;-73
2023/12/01 04:21:11;;;;;;;10.65;5.97;;;;;;;;;;5111437;28;20503;-73
2023/12/01 04:23:40;;;;;;;8.65;5.10;;;;;;;;;;5119021;28;20130;-73
2023/12/01 04:26:06;;;;;;;8.30;5.40;;;;;;;;;;5119587;27;20043;-73
2023/12/01 04:28:33;;;;;;;6.80;4.80;;;;;;;;;;5114597;28;20062;-73
2023/12/01 04:30:59;;;;;;;6.63;5.07;;;;;;;;;;5115622;28;20050;-74
2023/12/01 04:33:26;;;;;;;6.47;4.72;;;;;;;;;;5114229;28;20043;-73
2023/12/01 04:35:52;;;;;;;7.72;5.25;;;;;;;;;;5116927;27;20043;-73
2023/12/01 04:38:19;;;;;;;9.55;5.22;;;;;;;;;;5118391;27;20044;-73
2023/12/01 04:40:47;;;;;;;7.35;5.35;;;;;;;;;;5114777;28;20130;-73
2023/12/01 04:43:13;;;;;;;8.18;5.65;;;;;;;;;;5122037;27;20065;-72
2023/12/01 04:45:40;;;;;;;8.40;5.40;;;;;;;;;;5119672;27;20046;-73
2023/12/01 04:48:08;;;;;;;8.32;5.57;;;;;;;;;;5111074;28;20046;-73
2023/12/01 04:50:39;;;;;;;11.07;6.85;;;;;;;;;;5119976;27;20478;-73
2023/12/01 04:53:06;;;;;;;9.35;6.13;;;;;;;;;;5111775;27;20067;-72
2023/12/01 04:55:32;;;;;;;10.43;6.40;;;;;;;;;;5119601;27;20050;-72
2023/12/01 04:58:00;;;;;;;9.32;6.03;;;;;;;;;;5117212;27;20053;-73
2023/12/01 05:00:27;;;;;;;9.48;6.03;;;;;;;;;;5118346;27;20039;-73
2023/12/01 05:02:55;;;;;;;8.50;5.65;;;;;;;;;;5118791;27;20040;-73
2023/12/01 05:05:24;;;;;;;9.10;5.50;;;;;;;;;;5114995;28;20146;-73
2023/12/01 05:07:52;;;;;;;8.60;5.70;;;;;;;;;;5115011;28;20050;-73
2023/12/01 05:10:19;;;;;;;10.35;5.78;;;;;;;;;;5115922;27;20423;-73
2023/12/01 05:12:49;;;;;;;10.10;5.97;;;;;;;;;;5124630;27;20044;-73
2023/12/01 05:15:18;;;;;;;7.78;5.20;;;;;;;;;;5119604;27;20043;-73
2023/12/01 05:17:46;;;;;;;10.60;5.72;;;;;;;;;;5121999;27;20044;-73
2023/12/01 05:20:16;;;;;;;9.23;6.18;;;;;;;;;;5118343;27;20043;-73
2023/12/01 05:22:44;;;;;;;8.82;6.18;;;;;;;;;;5114760;28;20419;-72
2023/12/01 05:25:13;;;;;;;9.05;6.20;;;;;;;;;;5118312;27;20044;-73
2023/12/01 05:27:42;;;;;;;11.70;6.38;;;;;;;;;;5114831;27;20042;-73
2023/12/01 05:30:12;;;;;;;8.20;5.55;;;;;;;;;;5114224;28;20518;-73
2023/12/01 05:32:40;;;;;;;10.27;6.28;;;;;;;;;;5115332;27;20530;-73
2023/12/01 05:35:10;;;;;;;8.65;5.57;;;;;;;;;;5114752;27;20044;-73
2023/12/01 05:37:38;;;;;;;9.85;5.70;;;;;;;;;;5114610;27;20532;-73
2023/12/01 05:40:06;;;;;;;9.30;5.90;;;;;;;;;;5114972;27;20051;-74
2023/12/01 05:42:33;;;;;;;10.50;6.22;;;;;;;;;;5114525;28;20523;-72
2023/12/01 05:45:00;;;;;;;10.18;6.10;;;;;;;;;;5118939;27;20063;-73
2023/12/01 05:47:26;;;;;;;10.93;6.50;;;;;;;;;;5117941;27;20047;-73
2023/12/01 05:49:54;;;;;;;9.35;6.25;;;;;;;;;;5113899;28;20054;-71
2023/12/01 05:52:21;;;;;;;10.80;7.07;;;;;;;;;;5119949;27;20066;-73
2023/12/01 05:54:48;;;;;;;11.20;6.88;;;;;;;;;;5122002;27;20051;-73
2023/12/01 05:57:15;;;;;;;11.23;6.13;;;;;;;;;;5121434;27;20084;-73
2023/12/01 05:59:43;;;;;;;10.18;6.70;;;;;;;;;;5123197;27;20047;-75
2023/12/01 06:02:11;;;;;;;10.52;6.28;;;;;;;;;;5118051;27;20403;-72
2023/12/01 06:04:37;;;;;;;10.38;6.38;;;;;;;;;;5115189;27;20044;-73
2023/12/01 06:07:07;;;;;;;10.40;6.32;;;;;;;;;;5114198;28;20126;-74
2023/12/01 06:09:34;;;;;;;10.55;6.10;;;;;;;;;;5121384;27;20043;-73
2023/12/01 06:12:01;;;;;;;11.20;6.50;;;;;;;;;;5117526;27;20063;-74
2023/12/01 06:14:28;;;;;;;12.38;6.95;;;;;;;;;;5115928;27;20517;-73
2023/12/01 06:16:54;;;;;;;10.70;6.30;;;;;;;;;;5121061;27;20066;-74
2023/12/01 06:19:21;;;;;;;11.70;6.28;;;;;;;;;;5116633;27;20040;-74
2023/12/01 06:21:48;;;;;;;11.95;7.15;;;;;;;;;;5121268;27;20054;-74
2023/12/01 06:24:15;;;;;;;9.52;6.10;;;;;;;;;;5117289;27;20046;-73
2023/12/01 06:26:42;;;;;;;10.65;6.00;;;;;;;;;;5113261;28;20043;-73
2023/12/01 06:29:08;;;;;;;11.45;6.85;;;;;;;;;;5112924;28;20050;-74
2023/12/01 06:31:35;;;;;;;12.85;6.82;;;;;;;;;;5117344;27;20132;-73
2023/12/01 06:34:02;;;;;;;10.15;6.68;;;;;;;;;;5113043;28;20094;-74
2023/12/01 06:36:29;;;;;;;11.80;6.85;;;;;;;;;;5116397;27;20040;-73
2023/12/01 06:38:55;;;;;;;11.25;6.75;;;;;;;;;;5113704;27;20514;-73
2023/12/01 06:41:23;;;;;;;11.80;6.90;;;;;;;;;;5113687;27;20050;-73
2023/12/01 06:43:50;;;;;;;11.65;7.60;;;;;;;;;;5117031;27;20047;-74
2023/12/01 06:46:16;;;;;;;10.93;6.95;;;;;;;;;;5121205;27;20069;-72
2023/12/01 06:48:43;;;;;;;12.00;7.30;;;;;;;;;;5119380;27;20051;-74
2023/12/01 06:51:09;;;;;;;12.57;7.18;;;;;;;;;;5112923;28;20491;-74
2023/12/01 06:53:36;;;;;;;10.38;6.53;;;;;;;;;;5117033;27;20043;-73
2023/12/01 06:56:03;;;;;;;9.95;6.47;;;;;;;;;;5113128;27;20075;-72
2023/12/01 06:58:32;;;;;;;11.82;7.50;;;;;;;;;;5111801;28;20484;-73
2023/12/01 07:01:00;;;;;;;9.85;6.63;;;;;;;;;;5115839;27;20050;-72
2023/12/01 07:03:29;;;;;;;10.85;6.88;;;;;;;;;;5113428;27;20097;-74
2023/12/01 07:05:56;;;;;;;11.43;7.25;;;;;;;;;;5115735;27;20047;-74
2023/12/01 07:08:23;;;;;;;12.30;6.97;;;;;;;;;;5112238;28;20044;-73
2023/12/01 07:10:51;;;;;;;10.82;6.25;;;;;;;;;;5117212;27;20054;-74
2023/12/01 07:13:18;;;;;;;11.43;6.38;;;;;;;;;;5119454;27;20043;-73
2023/12/01 07:15:47;;;;;;;13.38;7.38;;;;;;;;;;5112341;28;20407;-73
2023/12/01 07:18:13;;;;;;;10.88;6.57;;;;;;;;;;5115185;27;20039;-73
2023/12/01 07:20:40;;;;;;;14.70;7.20;;;;;;;;;;5115743;27;20055;-74
2023/12/01 07:23:07;;;;;;;9.63;5.80;;;;;;;;;;5111800;28;20134;-73
2023/12/01 07:25:33;;;;;;;10.70;6.82;;;;;;;;;;5113080;28;20461;-73
2023/12/01 07:28:01;;;;;;;11.73;7.20;;;;;;;;;;5112932;27;20039;-73
2023/12/01 07:30:28;;;;;;;11.85;7.05;;;;;;;;;;5117377;27;20047;-74
2023/12/01 07:32:57;;;;;;;12.02;7.50;;;;;;;;;;5113730;27;20051;-74
2023/12/01 07:35:24;;;;;;;12.40;7.25;;;;;;;;;;5111961;28;20150;-73
2023/12/01 07:37:52;;;;;;;12.02;7.78;;;;;;;;;;5111348;28;20054;-72
2023/12/01 07:40:20;;;;;;;12.38;7.32;;;;;;;;;;5111616;28;20058;-73
2023/12/01 07:42:47;;;;;;;12.40;7.35;;;;;;;;;;5115835;27;20058;-74
2023/12/01 07:45:17;;;;;;;11.43;7.22;;;;;;;;;;5115251;27;20044;-72
2023/12/01 07:47:43;;;;;;;15.48;7.63;;;;;;;;;;5114785;27;20071;-73
2023/12/01 07:50:14;;;;;;;13.90;7.82;;;;;;;;;;5114432;28;20066;-72
2023/12/01 07:52:41;;;;;;;11.55;6.85;;;;;;;;;;5111651;28;20051;-71
2023/12/01 07:55:09;;;;;;;13.13;7.30;;;;;;;;;;5107840;28;20047;-72
2023/12/01 07:57:35;;;;;;;12.73;7.15;;;;;;;;;;5111628;28;20043;-72
2023/12/01 08:00:02;;;;;;;13.05;7.38;;;;;;;;;;5111196;28;20055;-71
2023/12/01 08:02:28;;;;;;;12.15;6.80;;;;;;;;;;5111679;28;20064;-72
2023/12/01 08:04:55;;;;;;;12.88;7.43;;;;;;;;;;5111386;28;20047;-71
2023/12/01 08:07:23;;;;;;;13.20;6.95;;;;;;;;;;5116285;28;20487;-72
2023/12/01 08:09:49;;;;;;;12.00;7.35;;;;;;;;;;5111936;28;20492;-72
2023/12/01 08:12:18;;;;;;;11.05;7.03;;;;;;;;;;5116061;28;20054;-72
2023/12/01 08:14:45;;;;;;;10.23;6.15;;;;;;;;;;5115637;28;20043;-71
2023/12/01 08:17:11;;;;;;;9.88;5.50;;;;;;;;;;5115748;27;20446;-71
2023/12/01 08:19:38;;;;;;;8.95;5.55;;;;;;;;;;5116281;28;20050;-71
2023/12/01 08:22:05;;;;;;;7.35;4.75;;;;;;;;;;5116091;28;20449;-71
2023/12/01 08:24:33;;;;;;;7.60;4.65;;;;;;;;;;5115819;28;20063;-71
2023/12/01 08:27:00;;;;;;;7.68;4.65;;;;;;;;;;5116388;27;20040;-71
2023/12/01 08:29:26;;;;;;;8.23;4.95;;;;;;;;;;5115621;28;20446;-72
2023/12/01 08:31:53;;;;;;;7.22;4.97;;;;;;;;;;5115577;28;20082;-71
2023/12/01 08:34:20;;;;;;;7.20;4.82;;;;;;;;;;5120119;27;20044;-71
2023/12/01 08:36:46;;;;;;;7.65;5.20;;;;;;;;;;5119696;27;20043;-71
2023/12/01 08:39:13;;;;;;;7.63;5.38;;;;;;;;;;5115138;28;20552;-71
2023/12/01 08:41:41;;;;;;;9.95;5.70;;;;;;;;;;5115387;28;20048;-71
2023/12/01 08:44:08;;;;;;;9.15;6.20;;;;;;;;;;5115896;28;20047;-71
2023/12/01 08:46:35;;;;;;;8.10;5.75;;;;;;;;;;5115355;28;20094;-71
2023/12/01 08:49:01;;;;;;;10.18;6.28;;;;;;;;;;5115677;27;20055;-72
2023/12/01 08:51:28;;;;;;;9.45;5.43;;;;;;;;;;5111534;28;20051;-71
2023/12/01 08:53:54;;;;;;;8.82;5.78;;;;;;;;;;5116125;27;20128;-71
2023/12/01 08:56:21;;;;;;;11.55;6.50;;;;;;;;;;5124546;27;20044;-71
2023/12/01 08:58:49;;;;;;;7.05;4.85;;;;;;;;;;5112585;28;20663;-72
2023/12/01 09:01:17;;;;;;;7.47;4.93;;;;;;;;;;5115593;27;20090;-71
2023/12/01 09:03:44;;;;;;;7.72;5.28;;;;;;;;;;5115125;27;20046;-72
2023/12/01 09:06:11;;;;;;;8.85;5.20;;;;;;;;;;5115389;28;20078;-71
2023/12/01 09:08:37;;;;;;;8.23;4.93;;;;;;;;;;5114899;27;20126;-71
2023/12/01 09:11:04;;;;;;;7.68;4.97;;;;;;;;;;5113413;28;20054;-71
2023/12/01 09:13:32;;;;;;;7.65;5.20;;;;;;;;;;5114275;28;20126;-71
2023/12/01 09:16:00;;;;;;;9.18;5.63;;;;;;;;;;5113955;28;20075;-71
2023/12/01 09:18:26;;;;;;;7.45;5.07;;;;;;;;;;5114046;28;20540;-71
2023/12/01 09:20:53;;;;;;;7.43;4.72;;;;;;;;;;5113431;28;20046;-71
2023/12/01 09:23:20;;;;;;;9.32;4.70;;;;;;;;;;5114732;27;20047;-71
2023/12/01 09:25:46;;;;;;;8.85;5.20;;;;;;;;;;5109257;27;20040;-72
2023/12/01 09:28:13;;;;;;;9.15;5.40;;;;;;;;;;5114198;27;20043;-71
2023/12/01 09:30:40;;;;;;;6.28;4.43;;;;;;;;;;5113948;28;20053;-71
2023/12/01 09:33:08;;;;;;;6.78;4.28;;;;;;;;;;5117468;27;20046;-71
2023/12/01 09:35:35;;;;;;;7.72;4.18;;;;;;;;;;5114652;27;20130;-71
2023/12/01 09:38:01;;;;;;;5.60;4.10;;;;;;;;;;5113194;28;20051;-71
2023/12/01 09:40:28;;;;;;;8.48;4.63;;;;;;;;;;5113712;27;20126;-71
2023/12/01 09:42:54;;;;;;;8.85;4.85;;;;;;;;;;5113949;28;20095;-71
2023/12/01 09:45:22;;;;;;;4.88;3.75;;;;;;;;;;5113367;27;20126;-71
2023/12/01 09:47:52;;;;;;;7.38;4.35;;;;;;;;;;5118910;27;20054;-71
2023/12/01 09:50:22;;;;;;;7.15;4.45;;;;;;;;;;5113239;28;20136;-71
2023/12/01 09:52:49;;;;;;;5.78;4.05;;;;;;;;;;5113251;28;20514;-72
2023/12/01 09:55:15;;;;;;;6.32;4.45;;;;;;;;;;5112978;27;20039;-71
2023/12/01 09:57:42;;;;;;;6.65;4.35;;;;;;;;;;5113009;28;20123;-72
2023/12/01 10:00:11;;;;;;;6.65;3.88;;;;;;;;;;5116322;27;20043;-71
2023/12/01 10:02:38;;;;;;;5.55;4.00;;;;;;;;;;5116659;27;20061;-71
2023/12/01 10:05:06;;;;;;;6.10;3.95;;;;;;;;;;5113670;28;20093;-71
2023/12/01 10:07:34;;;;;;;7.63;4.57;;;;;;;;;;5114412;27;20055;-72
2023/12/01 10:10:17;;;;;;;5.38;3.78;;;;;;;;;;5113041;28;20108;-71
2023/12/01 10:12:54;;;;;;;8.20;4.60;;;;;;;;;;5113441;28;20051;-71
2023/12/01 10:15:20;;;;;;;5.93;3.90;;;;;;;;;;5113195;28;20040;-71
2023/12/01 10:17:47;;;;;;;6.30;4.18;;;;;;;;;;5114033;27;20051;-72
2023/12/01 10:20:18;;;;;;;7.13;4.40;;;;;;;;;;5112691;28;20557;-71
2023/12/01 10:22:45;;;;;;;6.50;4.10;;;;;;;;;;5114836;28;20108;-71
2023/12/01 10:25:13;;;;;;;7.68;5.10;;;;;;;;;;5119007;27;20047;-71
2023/12/01 10:27:40;;;;;;;6.15;4.05;;;;;;;;;;5118145;27;20043;-72
2023/12/01 10:30:11;;;;;;;6.50;4.10;;;;;;;;;;5108779;28;20051;-71
2023/12/01 10:32:38;;;;;;;6.20;4.22;;;;;;;;;;5112848;28;20055;-71
2023/12/01 10:35:06;;;;;;;6.80;4.47;;;;;;;;;;5115053;27;20063;-71
2023/12/01 10:37:33;;;;;;;6.93;4.60;;;;;;;;;;5113213;28;20048;-71
2023/12/01 10:40:05;;;;;;;8.80;4.38;;;;;;;;;;5112664;28;20483;-71
2023/12/01 10:42:33;;;;;;;8.05;4.43;;;;;;;;;;5113028;28;20051;-71
2023/12/01 10:45:02;;;;;;;6.47;4.10;;;;;;;;;;5112748;28;20078;-71
2023/12/01 10:47:29;;;;;;;5.70;3.85;;;;;;;;;;5112152;28;20595;-71
2023/12/01 10:49:57;;;;;;;7.50;4.07;;;;;;;;;;5112838;28;20060;-71
2023/12/01 10:52:24;;;;;;;4.88;3.58;;;;;;;;;;5113953;27;20051;-71
2023/12/01 10:54:50;;;;;;;6.15;3.90;;;;;;;;;;5112818;28;20043;-71
2023/12/01 10:57:27;;;;;;;5.30;3.70;;;;;;;;;;5113760;27;20495;-71
2023/12/01 10:59:54;;;;;;;6.28;4.13;;;;;;;;;;5116834;27;20043;-71
2023/12/01 11:02:21;;;;;;;7.05;3.88;;;;;;;;;;5112486;28;20040;-71
2023/12/01 11:04:48;;;;;;;5.28;3.80;;;;;;;;;;5111961;27;20434;-71
2023/12/01 11:07:39;;;;;;;5.90;3.92;;;;;;;;;;5112192;28;20444;-71
2023/12/01 11:10:21;;;;;;;5.82;3.92;;;;;;;;;;5111984;28;20543;-71
2023/12/01 11:12:58;;;;;;;6.68;3.70;;;;;;;;;;5116702;27;20062;-72
2023/12/01 11:15:28;;;;;;;9.00;4.07;;;;;;;;;;5113019;27;20052;-71
2023/12/01 11:17:56;;;;;;;5.30;3.88;;;;;;;;;;5112857;27;20048;-71
2023/12/01 11:20:42;;;;;;;4.88;3.53;;;;;;;;;;5117997;27;20077;-71
2023/12/01 11:23:24;;;;;;;5.38;3.30;;;;;;;;;;5111996;28;20047;-71
2023/12/01 11:25:56;;;;;;;5.93;3.22;;;;;;;;;;5113185;27;20397;-71
2023/12/01 11:28:39;;;;;;;5.53;3.53;;;;;;;;;;5113545;27;20516;-71
2023/12/01 11:31:13;;;;;;;5.50;3.67;;;;;;;;;;5112096;28;20419;-71
2023/12/01 11:33:41;;;;;;;7.63;3.88;;;;;;;;;;5113228;27;20459;-71
2023/12/01 11:36:25;;;;;;;7.47;3.97;;;;;;;;;;5120023;27;20048;-71
2023/12/01 11:39:14;;;;;;;6.32;4.03;;;;;;;;;;5116555;27;20055;-71
2023/12/01 11:41:44;;;;;;;5.80;3.85;;;;;;;;;;5112821;27;20044;-71
2023/12/01 11:44:15;;;;;;;5.45;3.50;;;;;;;;;;5108758;28;20418;-71
2023/12/01 11:46:42;;;;;;;5.55;3.95;;;;;;;;;;5112248;28;20050;-71
2023/12/01 11:49:09;;;;;;;5.65;3.80;;;;;;;;;;5112070;28;20047;-71
2023/12/01 11:51:36;;;;;;;4.50;3.70;;;;;;;;;;5111978;28;20079;-71
2023/12/01 11:54:03;;;;;;;5.30;3.70;;;;;;;;;;5112085;28;20091;-71
2023/12/01 11:56:32;;;;;;;6.40;3.85;;;;;;;;;;5111953;28;20059;-71
2023/12/01 11:58:59;;;;;;;5.93;3.72;;;;;;;;;;5111926;28;20419;-71
2023/12/01 12:01:27;;;;;;;6.05;3.33;;;;;;;;;;5111976;28;20050;-70
2023/12/01 12:03:54;;;;;;;5.35;3.95;;;;;;;;;;5109529;28;20051;-71
2023/12/01 12:06:21;;;;;;;6.80;3.95;;;;;;;;;;5111456;28;20122;-71
2023/12/01 12:08:47;;;;;;;7.20;4.05;;;;;;;;;;5112516;28;20043;-71
2023/12/01 12:11:14;;;;;;;7.10;3.75;;;;;;;;;;5116055;28;20060;-71
2023/12/01 12:13:41;;;;;;;6.25;3.65;;;;;;;;;;5118729;28;20039;-71
2023/12/01 12:16:08;;;;;;;6.40;4.07;;;;;;;;;;5114163;27;20430;-71
2023/12/01 12:18:36;;;;;;;6.15;3.55;;;;;;;;;;5111560;28;20043;-71
2023/12/01 12:21:04;;;;;;;7.40;4.05;;;;;;;;;;5112448;28;20051;-71
2023/12/01 12:23:32;;;;;;;5.93;3.40;;;;;;;;;;5114533;28;20044;-71
2023/12/01 12:26:13;;;;;;;6.65;3.70;;;;;;;;;;5116955;28;20491;-71
2023/12/01 12:28:41;;;;;;;5.88;4.10;;;;;;;;;;5108661;28;20047;-71
2023/12/01 12:31:07;;;;;;;5.93;4.13;;;;;;;;;;5110332;28;20054;-71
2023/12/01 12:33:36;;;;;;;6.25;4.10;;;;;;;;;;5111913;28;20154;-71
2023/12/01 12:36:05;;;;;;;7.65;4.60;;;;;;;;;;5112006;28;20055;-71
2023/12/01 12:38:32;;;;;;;7.00;4.00;;;;;;;;;;5111753;28;20052;-71
2023/12/01 12:40:59;;;;;;;6.55;4.47;;;;;;;;;;5112103;28;20043;-71
2023/12/01 12:43:25;;;;;;;8.15;4.00;;;;;;;;;;5112734;28;20050;-71
2023/12/01 12:45:53;;;;;;;7.78;4.43;;;;;;;;;;5111356;28;20048;-71
2023/12/01 12:48:25;;;;;;;6.85;4.05;;;;;;;;;;5105691;28;20403;-71
2023/12/01 12:50:53;;;;;;;7.43;4.40;;;;;;;;;;5113245;28;20427;-71
2023/12/01 12:53:19;;;;;;;6.45;4.22;;;;;;;;;;5113476;28;20190;-72
2023/12/01 12:55:46;;;;;;;7.22;3.90;;;;;;;;;;5111313;28;20475;-71
2023/12/01 12:58:13;;;;;;;6.43;4.05;;;;;;;;;;5114823;27;20458;-71
2023/12/01 13:00:40;;;;;;;9.77;4.35;;;;;;;;;;5116246;27;20116;-71
2023/12/01 13:03:06;;;;;;;7.30;3.92;;;;;;;;;;5121606;27;20051;-71
2023/12/01 13:05:33;;;;;;;6.68;3.92;;;;;;;;;;5115726;28;20506;-72
2023/12/01 13:08:02;;;;;;;5.65;4.18;;;;;;;;;;5123535;27;20438;-72
2023/12/01 13:10:28;;;;;;;6.57;4.40;;;;;;;;;;5119295;27;20043;-72
2023/12/01 13:12:55;;;;;;;5.18;3.75;;;;;;;;;;5122460;27;20582;-72
2023/12/01 13:15:22;;;;;;;6.13;3.80;;;;;;;;;;5115073;28;20082;-72
2023/12/01 13:17:48;;;;;;;6.97;4.28;;;;;;;;;;5115849;27;20050;-72
2023/12/01 13:20:15;;;;;;;7.03;3.92;;;;;;;;;;5118247;27;20139;-72
2023/12/01 13:22:43;;;;;;;5.15;3.05;;;;;;;;;;5114860;28;20048;-72
2023/12/01 13:25:11;;;;;;;8.05;3.72;;;;;;;;;;5108743;27;20500;-72
2023/12/01 13:27:37;;;;;;;8.07;5.07;;;;;;;;;;5116737;27;20039;-71
2023/12/01 13:30:05;;;;;;;6.13;4.10;;;;;;;;;;5114634;28;20086;-71
2023/12/01 13:32:31;;;;;;;7.00;4.50;;;;;;;;;;5115791;27;20075;-71
2023/12/01 13:34:58;;;;;;;5.82;3.60;;;;;;;;;;5114516;28;20054;-71
2023/12/01 13:37:24;;;;;;;4.75;3.45;;;;;;;;;;5115545;27;20130;-71
2023/12/01 13:39:51;;;;;;;6.82;3.92;;;;;;;;;;5114279;28;20044;-71
2023/12/01 13:42:19;;;;;;;7.18;3.95;;;;;;;;;;5120255;27;20092;-72
2023/12/01 13:44:46;;;;;;;5.60;3.75;;;;;;;;;;5125201;27;20494;-71
2023/12/01 13:47:12;;;;;;;6.85;3.92;;;;;;;;;;5114318;28;20040;-72
2023/12/01 13:49:39;;;;;;;6.30;4.28;;;;;;;;;;5111464;27;20534;-72
2023/12/01 13:52:06;;;;;;;6.13;3.83;;;;;;;;;;5118685;27;20048;-72
2023/12/01 13:54:32;;;;;;;6.45;4.20;;;;;;;;;;5114197;28;20044;-71
2023/12/01 13:56:59;;;;;;;5.78;3.92;;;;;;;;;;5114586;27;20044;-72
2023/12/01 13:59:27;;;;;;;6.40;4.15;;;;;;;;;;5115041;27;20491;-72
2023/12/01 14:01:53;;;;;;;6.32;3.95;;;;;;;;;;5113958;28;20479;-72
2023/12/01 14:04:20;;;;;;;6.32;4.60;;;;;;;;;;5115183;27;20440;-71
2023/12/01 14:06:46;;;;;;;5.82;4.38;;;;;;;;;;5114972;27;20480;-71
2023/12/01 14:09:14;;;;;;;7.82;4.13;;;;;;;;;;5117597;27;20496;-72
2023/12/01 14:11:41;;;;;;;7.47;4.18;;;;;;;;;;5112439;27;20578;-72
2023/12/01 14:14:07;;;;;;;5.32;3.90;;;;;;;;;;5114939;27;20047;-71
2023/12/01 14:16:35;;;;;;;6.32;3.92;;;;;;;;;;5118380;27;20050;-72
2023/12/01 14:19:02;;;;;;;5.20;3.67;;;;;;;;;;5117275;27;20130;-72
2023/12/01 14:21:28;;;;;;;6.40;3.55;;;;;;;;;;5119307;27;20046;-71
2023/12/01 14:23:55;;;;;;;5.88;3.70;;;;;;;;;;5114374;27;20492;-71
2023/12/01 14:26:22;;;;;;;6.20;4.03;;;;;;;;;;5117739;27;20129;-71
2023/12/01 14:28:48;;;;;;;6.05;4.10;;;;;;;;;;5116152;27;20051;-72
2023/12/01 14:31:15;;;;;;;4.78;3.53;;;;;;;;;;5117967;27;20046;-71
2023/12/01 14:33:43;;;;;;;5.07;3.65;;;;;;;;;;5114539;27;20044;-71
2023/12/01 14:36:10;;;;;;;5.68;3.90;;;;;;;;;;5121218;27;20418;-71
2023/12/01 14:38:38;;;;;;;4.90;3.45;;;;;;;;;;5113967;27;20424;-71
2023/12/01 14:41:04;;;;;;;7.93;4.47;;;;;;;;;;5117423;27;20062;-72
2023/12/01 14:43:31;;;;;;;7.15;4.15;;;;;;;;;;5114260;27;20054;-71